createdAt,value
2019-06-27T00:01:18.537Z,98146.92
2019-06-27T00:03:46.762Z,98145.84
2019-06-27T00:06:14.705Z,98148.02
2019-06-27T00:08:43.685Z,98143.49
2019-06-27T00:11:11.703Z,98136.87
2019-06-27T00:13:39.878Z,98134.14
2019-06-27T00:16:08.038Z,98137.14
2019-06-27T00:18:36.122Z,98133.06
2019-06-27T00:21:04.166Z,98133.70
2019-06-27T00:23:31.941Z,98132.00
2019-06-27T00:25:59.899Z,98130.23
2019-06-27T00:28:27.986Z,98132.38
2019-06-27T00:30:56.077Z,98127.95
2019-06-27T00:33:23.660Z,98130.09
2019-06-27T00:35:51.210Z,98130.77
2019-06-27T00:38:18.843Z,98131.94
2019-06-27T00:40:46.471Z,98127.39
2019-06-27T00:43:14.004Z,98124.61
2019-06-27T00:45:41.642Z,98127.39
2019-06-27T00:48:09.179Z,98124.66
2019-06-27T00:50:36.773Z,98129.14
2019-06-27T00:53:04.401Z,98124.86
2019-06-27T00:55:32.058Z,98127.38
2019-06-27T00:58:00.251Z,98126.46
2019-06-27T01:00:28.204Z,98127.77
2019-06-27T01:02:56.564Z,98124.08
2019-06-27T01:05:24.477Z,98125.21
2019-06-27T01:07:52.474Z,98117.47
2019-06-27T01:10:20.656Z,98117.33
2019-06-27T01:12:48.590Z,98118.78
2019-06-27T01:15:18.629Z,98119.72
2019-06-27T01:17:46.767Z,98122.67
2019-06-27T01:20:14.911Z,98120.36
2019-06-27T01:22:42.798Z,98118.48
2019-06-27T01:25:10.806Z,98118.70
2019-06-27T01:27:38.685Z,98117.42
2019-06-27T01:30:07.236Z,98111.17
2019-06-27T01:32:35.176Z,98115.72
2019-06-27T01:35:04.290Z,98109.55
2019-06-27T01:37:32.546Z,98113.55
2019-06-27T01:40:00.722Z,98111.20
2019-06-27T01:42:28.763Z,98112.20
2019-06-27T01:45:04.832Z,98116.89
2019-06-27T01:47:32.829Z,98118.87
2019-06-27T01:50:00.999Z,98113.73
2019-06-27T01:52:28.999Z,98111.74
2019-06-27T01:54:57.237Z,98115.08
2019-06-27T01:57:25.443Z,98109.80
2019-06-27T01:59:53.528Z,98122.03
2019-06-27T02:02:21.611Z,98113.88
2019-06-27T02:04:49.508Z,98103.80
2019-06-27T02:07:17.648Z,98107.45
2019-06-27T02:09:45.720Z,98110.47
2019-06-27T02:12:13.774Z,98102.55
2019-06-27T02:14:42.002Z,98104.51
2019-06-27T02:17:09.807Z,98109.83
2019-06-27T02:19:37.735Z,98108.80
2019-06-27T02:22:06.087Z,98109.05
2019-06-27T02:24:35.172Z,98108.34
2019-06-27T02:27:04.655Z,98107.94
2019-06-27T02:29:32.681Z,98102.30
2019-06-27T02:32:01.101Z,98108.11
2019-06-27T02:34:29.461Z,98102.05
2019-06-27T02:36:57.556Z,98099.12
2019-06-27T02:39:25.522Z,98106.18
2019-06-27T02:41:53.399Z,98098.88
2019-06-27T02:44:21.359Z,98097.56
2019-06-27T02:46:49.429Z,98099.37
2019-06-27T02:49:17.289Z,98101.73
2019-06-27T02:51:46.494Z,98095.98
2019-06-27T02:54:14.001Z,98094.69
2019-06-27T02:56:41.613Z,98092.28
2019-06-27T02:59:09.641Z,98091.62
2019-06-27T03:01:37.663Z,98093.20
2019-06-27T03:04:05.496Z,98082.42
2019-06-27T03:06:33.595Z,98086.96
2019-06-27T03:09:01.565Z,98092.77
2019-06-27T03:11:31.277Z,98088.72
2019-06-27T03:13:59.582Z,98084.69
2019-06-27T03:16:27.696Z,98088.58
2019-06-27T03:18:55.697Z,98093.33
2019-06-27T03:21:23.577Z,98091.14
2019-06-27T03:23:51.663Z,98089.84
2019-06-27T03:26:19.617Z,98089.52
2019-06-27T03:28:52.669Z,98092.89
2019-06-27T03:31:17.730Z,98096.25
2019-06-27T03:33:45.336Z,98086.96
2019-06-27T03:36:14.100Z,98084.31
2019-06-27T03:38:41.834Z,98081.48
2019-06-27T03:41:09.734Z,98081.88
2019-06-27T03:43:37.880Z,98077.52
2019-06-27T03:46:06.294Z,98072.77
2019-06-27T03:48:34.466Z,98081.55
2019-06-27T03:51:02.476Z,98074.65
2019-06-27T03:53:30.820Z,98070.02
2019-06-27T03:55:58.416Z,98076.47
2019-06-27T03:58:26.020Z,98077.89
2019-06-27T04:00:53.954Z,98073.25
2019-06-27T04:03:21.837Z,98073.79
2019-06-27T04:05:49.808Z,98066.45
2019-06-27T04:08:17.853Z,98068.90
2019-06-27T04:10:45.852Z,98066.30
2019-06-27T04:13:15.115Z,98068.22
2019-06-27T04:15:43.034Z,98067.72
2019-06-27T04:18:11.017Z,98068.25
2019-06-27T04:20:39.348Z,98066.36
2019-06-27T04:23:06.877Z,98060.99
2019-06-27T04:25:34.513Z,98062.44
2019-06-27T04:28:02.865Z,98059.33
2019-06-27T04:30:30.946Z,98034.81
2019-06-27T04:32:58.884Z,98060.28
2019-06-27T04:35:26.421Z,98061.77
2019-06-27T04:37:54.048Z,98059.56
2019-06-27T04:40:22.027Z,98057.60
2019-06-27T04:42:49.594Z,98058.37
2019-06-27T04:45:18.129Z,98059.66
2019-06-27T04:47:45.830Z,98065.61
2019-06-27T04:50:13.476Z,98059.98
2019-06-27T04:52:41.207Z,98048.96
2019-06-27T04:55:08.975Z,98061.88
2019-06-27T04:57:36.554Z,98051.93
2019-06-27T05:00:04.673Z,98044.02
2019-06-27T05:02:32.168Z,98044.02
2019-06-27T05:04:59.748Z,98050.16
2019-06-27T05:07:27.306Z,98051.89
2019-06-27T05:09:55.040Z,98049.76
2019-06-27T05:12:22.741Z,98049.76
2019-06-27T05:14:50.497Z,98048.25
2019-06-27T05:17:18.137Z,98040.19
2019-06-27T05:19:45.686Z,98044.11
2019-06-27T05:22:13.296Z,98042.77
2019-06-27T05:24:40.963Z,98040.91
2019-06-27T05:27:08.701Z,98024.00
2019-06-27T05:29:36.258Z,98037.22
2019-06-27T05:32:03.956Z,98040.95
2019-06-27T05:34:31.535Z,98031.16
2019-06-27T05:36:59.196Z,98037.61
2019-06-27T05:39:26.780Z,98031.83
2019-06-27T05:41:54.382Z,98024.36
2019-06-27T05:44:21.952Z,98027.75
2019-06-27T05:46:49.630Z,98030.43
2019-06-27T05:49:18.253Z,98028.72
2019-06-27T05:51:45.804Z,98030.08
2019-06-27T05:54:13.362Z,98027.69
2019-06-27T05:56:40.903Z,98024.64
2019-06-27T05:59:08.485Z,98021.54
2019-06-27T06:01:36.161Z,98025.85
2019-06-27T06:04:03.747Z,98022.72
2019-06-27T06:06:31.293Z,98023.36
2019-06-27T06:08:58.907Z,98023.64
2019-06-27T06:11:26.558Z,98022.19
2019-06-27T06:13:54.114Z,98022.13
2019-06-27T06:16:21.754Z,98018.98
2019-06-27T06:18:49.322Z,98019.19
2019-06-27T06:21:16.941Z,98024.02
2019-06-27T06:23:44.508Z,98017.65
2019-06-27T06:26:12.129Z,98020.80
2019-06-27T06:28:41.888Z,98013.44
2019-06-27T06:31:09.434Z,97997.64
2019-06-27T06:33:37.088Z,98012.89
2019-06-27T06:36:06.307Z,98003.89
2019-06-27T06:38:33.976Z,98005.52
2019-06-27T06:41:01.596Z,98006.16
2019-06-27T06:43:29.150Z,98007.30
2019-06-27T06:45:57.361Z,98005.16
2019-06-27T06:48:24.962Z,97998.25
2019-06-27T06:50:52.524Z,97996.88
2019-06-27T06:53:20.081Z,97997.27
2019-06-27T06:55:47.627Z,97991.63
2019-06-27T06:58:15.210Z,98000.62
2019-06-27T07:00:42.782Z,97991.10
2019-06-27T07:03:10.490Z,97991.94
2019-06-27T07:05:38.131Z,97985.83
2019-06-27T07:08:05.828Z,97990.08
2019-06-27T07:10:33.447Z,97966.63
2019-06-27T07:13:00.974Z,97984.67
2019-06-27T07:15:28.513Z,97984.25
2019-06-27T07:17:56.144Z,97986.73
2019-06-27T07:20:23.637Z,97988.91
2019-06-27T07:22:51.248Z,97979.45
2019-06-27T07:25:18.833Z,97969.24
2019-06-27T07:27:46.430Z,97976.72
2019-06-27T07:30:15.074Z,97972.83
2019-06-27T07:32:42.727Z,97974.12
2019-06-27T07:35:10.615Z,97968.72
2019-06-27T07:37:38.220Z,97971.19
2019-06-27T07:40:07.322Z,97974.64
2019-06-27T07:42:35.268Z,97971.64
2019-06-27T07:45:02.952Z,97969.08
2019-06-27T07:47:30.673Z,97968.55
2019-06-27T07:49:58.295Z,97969.45
2019-06-27T07:52:25.804Z,97957.80
2019-06-27T07:54:53.521Z,97961.16
2019-06-27T07:57:21.117Z,97959.75
2019-06-27T07:59:48.747Z,97945.41
2019-06-27T08:02:16.536Z,97943.33
2019-06-27T08:04:44.474Z,97936.16
2019-06-27T08:07:13.090Z,97934.66
2019-06-27T08:09:40.712Z,97939.19
2019-06-27T08:12:08.240Z,97935.86
2019-06-27T08:14:35.786Z,97938.48
2019-06-27T08:17:03.360Z,97936.02
2019-06-27T08:19:30.916Z,97934.37
2019-06-27T08:21:58.430Z,97925.66
2019-06-27T08:24:26.074Z,97919.09
2019-06-27T08:26:53.665Z,97912.72
2019-06-27T08:29:21.436Z,97912.38
2019-06-27T08:31:51.878Z,97908.27
2019-06-27T08:34:18.795Z,97907.80
2019-06-27T08:36:46.454Z,97911.40
2019-06-27T08:39:14.190Z,97897.87
2019-06-27T08:41:42.010Z,97899.73
2019-06-27T08:44:09.758Z,97894.39
2019-06-27T08:46:37.381Z,97887.34
2019-06-27T08:49:04.973Z,97897.42
2019-06-27T08:51:32.651Z,97891.13
2019-06-27T08:54:00.236Z,97897.56
2019-06-27T08:56:27.967Z,97893.01
2019-06-27T08:58:55.491Z,97886.12
2019-06-27T09:01:23.076Z,97887.37
2019-06-27T09:03:50.663Z,97882.59
2019-06-27T09:06:21.002Z,97882.28
2019-06-27T09:08:47.803Z,97879.03
2019-06-27T09:11:15.365Z,97877.70
2019-06-27T09:13:42.921Z,97867.98
2019-06-27T09:16:10.505Z,97871.00
2019-06-27T09:18:38.073Z,97869.83
2019-06-27T09:21:05.673Z,97866.41
2019-06-27T09:23:33.358Z,97868.73
2019-06-27T09:26:00.975Z,97866.87
2019-06-27T09:28:28.662Z,97865.47
2019-06-27T09:30:56.219Z,97865.89
2019-06-27T09:33:23.860Z,97856.38
2019-06-27T09:35:51.401Z,97857.09
2019-06-27T09:38:19.035Z,97854.17
2019-06-27T09:40:46.684Z,97856.09
2019-06-27T09:43:14.291Z,97853.89
2019-06-27T09:45:41.850Z,97846.41
2019-06-27T09:48:09.452Z,97856.39
2019-06-27T09:50:37.005Z,97854.93
2019-06-27T09:53:04.580Z,97848.72
2019-06-27T09:55:32.163Z,97849.47
2019-06-27T09:58:00.079Z,97848.66
2019-06-27T10:00:28.058Z,97845.69
2019-06-27T10:02:55.659Z,97838.17
2019-06-27T10:05:23.427Z,97845.53
2019-06-27T10:07:51.008Z,97827.31
2019-06-27T10:10:18.657Z,97838.22
2019-06-27T10:12:47.250Z,97843.63
2019-06-27T10:15:15.114Z,97839.48
2019-06-27T10:17:42.681Z,97840.85
2019-06-27T10:20:10.417Z,97835.11
2019-06-27T10:22:38.034Z,97818.14
2019-06-27T10:25:05.881Z,97823.22
2019-06-27T10:27:33.540Z,97815.48
2019-06-27T10:30:01.142Z,97811.88
2019-06-27T10:32:28.729Z,97804.38
2019-06-27T10:34:56.320Z,97805.48
2019-06-27T10:37:23.937Z,97804.39
2019-06-27T10:39:51.514Z,97799.64
2019-06-27T10:42:19.045Z,97799.94
2019-06-27T10:44:46.681Z,97804.91
2019-06-27T10:47:14.198Z,97800.20
2019-06-27T10:49:41.835Z,97799.92
2019-06-27T10:52:09.386Z,97801.59
2019-06-27T10:54:36.962Z,97797.94
2019-06-27T10:57:04.548Z,97782.61
2019-06-27T10:59:32.210Z,97786.47
2019-06-27T11:01:59.745Z,97782.79
2019-06-27T11:04:28.434Z,97779.45
2019-06-27T11:06:55.965Z,97786.16
2019-06-27T11:09:23.601Z,97771.19
2019-06-27T11:11:51.132Z,97772.14
2019-06-27T11:14:19.334Z,97763.28
2019-06-27T11:16:47.070Z,97762.05
2019-06-27T11:19:14.700Z,97758.95
2019-06-27T11:21:42.283Z,97757.04
2019-06-27T11:24:10.059Z,97753.98
2019-06-27T11:26:37.683Z,97751.65
2019-06-27T11:29:05.365Z,97744.83
2019-06-27T11:31:32.971Z,97743.11
2019-06-27T11:34:00.590Z,97737.91
2019-06-27T11:36:28.250Z,97733.14
2019-06-27T11:38:57.232Z,97728.78
2019-06-27T11:41:24.765Z,97735.17
2019-06-27T11:43:52.377Z,97729.25
2019-06-27T11:46:19.966Z,97723.97
2019-06-27T11:48:48.670Z,97718.73
2019-06-27T11:51:16.197Z,97712.66
2019-06-27T11:53:43.933Z,97713.07
2019-06-27T11:56:11.444Z,97708.48
2019-06-27T11:58:39.083Z,97704.85
2019-06-27T12:01:07.563Z,97699.43
2019-06-27T12:03:48.412Z,97697.10
2019-06-27T12:06:04.786Z,97703.27
2019-06-27T12:08:32.489Z,97698.27
2019-06-27T12:11:00.125Z,97691.27
2019-06-27T12:13:27.739Z,97689.37
2019-06-27T12:15:55.362Z,97682.00
2019-06-27T12:18:22.953Z,97680.38
2019-06-27T12:20:50.699Z,97668.47
2019-06-27T12:23:18.244Z,97662.88
2019-06-27T12:25:45.828Z,97661.98
2019-06-27T12:28:13.522Z,97658.70
2019-06-27T12:30:41.187Z,97645.89
2019-06-27T12:33:08.723Z,97643.31
2019-06-27T12:35:36.263Z,97639.14
2019-06-27T12:38:03.843Z,97628.73
2019-06-27T12:40:31.483Z,97625.00
2019-06-27T12:42:59.099Z,97618.89
2019-06-27T12:45:26.616Z,97610.06
2019-06-27T12:47:54.215Z,97614.41
2019-06-27T12:50:21.920Z,97610.41
2019-06-27T12:52:49.485Z,97603.38
2019-06-27T12:55:17.143Z,97607.31
2019-06-27T12:57:44.712Z,97603.17
2019-06-27T13:00:12.662Z,97596.23
2019-06-27T13:02:40.232Z,97588.50
2019-06-27T13:05:08.411Z,97583.64
2019-06-27T13:07:35.940Z,97584.28
2019-06-27T13:10:03.772Z,97574.93
2019-06-27T13:12:31.294Z,97581.62
2019-06-27T13:14:58.949Z,97579.01
2019-06-27T13:17:26.967Z,97584.27
2019-06-27T13:19:54.616Z,97582.41
2019-06-27T13:22:22.138Z,97582.91
2019-06-27T13:24:49.759Z,97581.19
2019-06-27T13:27:17.309Z,97576.41
2019-06-27T13:29:45.111Z,97571.36
2019-06-27T13:32:13.237Z,97572.98
2019-06-27T13:34:41.360Z,97562.57
2019-06-27T13:37:09.066Z,97563.78
2019-06-27T13:39:36.782Z,97563.58
2019-06-27T13:42:04.405Z,97567.15
2019-06-27T13:44:31.934Z,97555.96
2019-06-27T13:46:59.509Z,97555.96
2019-06-27T13:49:27.030Z,97548.84
2019-06-27T13:51:54.772Z,97565.20
2019-06-27T13:54:22.358Z,97551.67
2019-06-27T13:56:49.984Z,97540.83
2019-06-27T13:59:17.645Z,97549.69
2019-06-27T14:01:45.234Z,97559.39
2019-06-27T14:04:12.832Z,97555.25
2019-06-27T14:06:41.468Z,97540.30
2019-06-27T14:09:21.949Z,97554.58
2019-06-27T14:11:39.026Z,97564.97
2019-06-27T14:14:06.735Z,97580.64
2019-06-27T14:16:34.425Z,97600.96
2019-06-27T14:19:02.149Z,97585.95
2019-06-27T14:21:29.704Z,97593.22
2019-06-27T14:23:57.440Z,97604.79
2019-06-27T14:26:25.384Z,97603.19
2019-06-27T14:28:53.113Z,97613.02
2019-06-27T14:31:20.676Z,97599.59
2019-06-27T14:33:48.347Z,97625.36
2019-06-27T14:36:15.990Z,97633.44
2019-06-27T14:38:43.641Z,97628.26
2019-06-27T14:41:11.209Z,97619.82
2019-06-27T14:43:38.937Z,97613.88
2019-06-27T14:46:06.552Z,97618.02
2019-06-27T14:48:34.472Z,97636.78
2019-06-27T14:51:02.122Z,97643.98
2019-06-27T14:53:29.794Z,97638.79
2019-06-27T14:55:57.489Z,97650.08
2019-06-27T14:58:25.165Z,97651.47
2019-06-27T15:00:52.714Z,97656.70
2019-06-27T15:03:20.394Z,97652.91
2019-06-27T15:05:48.002Z,97649.11
2019-06-27T15:08:15.687Z,97644.08
2019-06-27T15:10:43.247Z,97643.40
2019-06-27T15:13:10.844Z,97642.08
2019-06-27T15:15:38.394Z,97637.09
2019-06-27T15:18:05.960Z,97627.11
2019-06-27T15:20:33.689Z,97629.41
2019-06-27T15:23:01.351Z,97631.12
2019-06-27T15:25:28.940Z,97631.12
2019-06-27T15:27:56.696Z,97635.75
2019-06-27T15:30:24.173Z,97666.94
2019-06-27T15:32:51.797Z,97679.11
2019-06-27T15:35:19.271Z,97673.80
2019-06-27T15:37:46.837Z,97677.47
2019-06-27T15:40:14.687Z,97690.12
2019-06-27T15:42:42.682Z,97675.34
2019-06-27T15:45:10.673Z,97658.94
2019-06-27T15:47:38.342Z,97665.27
2019-06-27T15:50:06.301Z,97670.66
2019-06-27T15:52:34.049Z,97668.83
2019-06-27T15:55:01.591Z,97659.80
2019-06-27T15:57:29.211Z,97659.86
2019-06-27T15:59:56.819Z,97661.97
2019-06-27T16:02:24.364Z,97664.38
2019-06-27T16:04:51.908Z,97658.02
2019-06-27T16:07:19.656Z,97680.76
2019-06-27T16:09:47.271Z,97689.23
2019-06-27T16:12:14.896Z,97684.16
2019-06-27T16:14:42.455Z,97676.81
2019-06-27T16:17:10.081Z,97675.21
2019-06-27T16:19:37.682Z,97665.94
2019-06-27T16:22:05.331Z,97670.01
2019-06-27T16:24:32.882Z,97671.53
2019-06-27T16:27:00.567Z,97669.58
2019-06-27T16:29:28.358Z,97660.73
2019-06-27T16:31:55.952Z,97650.41
2019-06-27T16:34:28.717Z,97658.06
2019-06-27T16:36:54.582Z,97645.52
2019-06-27T16:39:22.225Z,97649.80
2019-06-27T16:41:49.815Z,97647.06
2019-06-27T16:44:19.028Z,97636.67
2019-06-27T16:46:46.592Z,97647.20
2019-06-27T16:49:14.234Z,97652.36
2019-06-27T16:51:41.845Z,97654.34
2019-06-27T16:54:09.459Z,97666.02
2019-06-27T16:56:37.180Z,97671.84
2019-06-27T16:59:04.950Z,97680.48
2019-06-27T17:01:32.590Z,97675.98
2019-06-27T17:04:00.256Z,97666.02
2019-06-27T17:06:40.904Z,97647.04
2019-06-27T17:08:57.400Z,97642.80
2019-06-27T17:11:24.988Z,97654.80
2019-06-27T17:13:52.614Z,97655.16
2019-06-27T17:16:22.382Z,97660.56
2019-06-27T17:18:50.064Z,97661.58
2019-06-27T17:21:17.779Z,97649.58
2019-06-27T17:23:45.491Z,97657.11
2019-06-27T17:26:13.105Z,97656.62
2019-06-27T17:28:40.872Z,97677.20
2019-06-27T17:31:08.473Z,97672.37
2019-06-27T17:33:36.051Z,97674.30
2019-06-27T17:36:03.685Z,97672.06
2019-06-27T17:38:31.376Z,97673.00
2019-06-27T17:40:58.928Z,97673.63
2019-06-27T17:43:26.516Z,97675.53
2019-06-27T17:45:54.109Z,97673.36
2019-06-27T17:48:21.697Z,97688.77
2019-06-27T17:50:49.382Z,97687.80
2019-06-27T17:53:16.925Z,97677.64
2019-06-27T17:55:44.504Z,97665.02
2019-06-27T17:58:12.074Z,97672.09
2019-06-27T18:00:39.914Z,97672.66
2019-06-27T18:03:07.482Z,97673.91
2019-06-27T18:05:35.138Z,97672.55
2019-06-27T18:08:02.735Z,97664.72
2019-06-27T18:10:30.356Z,97652.69
2019-06-27T18:12:58.308Z,97641.94
2019-06-27T18:15:25.901Z,97635.57
2019-06-27T18:17:53.536Z,97629.72
2019-06-27T18:20:21.222Z,97632.56
2019-06-27T18:22:49.065Z,97622.54
2019-06-27T18:25:16.723Z,97622.64
2019-06-27T18:27:44.341Z,97637.12
2019-06-27T18:30:12.466Z,97633.50
2019-06-27T18:32:40.794Z,97639.53
2019-06-27T18:35:09.027Z,97631.84
2019-06-27T18:37:36.676Z,97635.49
2019-06-27T18:40:04.791Z,97646.09
2019-06-27T18:42:32.924Z,97651.45
2019-06-27T18:45:00.983Z,97653.05
2019-06-27T18:47:29.112Z,97651.08
2019-06-27T18:49:57.333Z,97655.78
2019-06-27T18:52:25.728Z,97655.98
2019-06-27T18:54:53.596Z,97651.66
2019-06-27T18:57:22.317Z,97654.22
2019-06-27T18:59:53.428Z,97666.81
2019-06-27T19:02:19.990Z,97670.59
2019-06-27T19:04:47.818Z,97684.89
2019-06-27T19:07:15.832Z,97689.90
2019-06-27T19:09:43.653Z,97690.54
2019-06-27T19:12:11.801Z,97687.12
2019-06-27T19:14:40.302Z,97690.17
2019-06-27T19:17:08.352Z,97685.84
2019-06-27T19:19:38.006Z,97691.17
2019-06-27T19:22:25.657Z,97694.97
2019-06-27T19:24:58.290Z,97710.16
2019-06-27T19:27:26.858Z,97711.80
2019-06-27T19:29:54.859Z,97715.34
2019-06-27T19:32:22.956Z,97721.11
2019-06-27T19:34:51.054Z,97727.19
2019-06-27T19:37:19.019Z,97726.62
2019-06-27T19:39:47.447Z,97734.45
2019-06-27T19:42:15.766Z,97736.52
2019-06-27T19:44:43.539Z,97733.60
2019-06-27T19:47:11.204Z,97736.27
2019-06-27T19:49:38.891Z,97730.09
2019-06-27T19:52:06.546Z,97736.79
2019-06-27T19:54:34.533Z,97737.50
2019-06-27T19:57:02.222Z,97734.54
2019-06-27T19:59:29.840Z,97729.52
2019-06-27T20:01:57.535Z,97740.19
2019-06-27T20:04:25.762Z,97736.63
2019-06-27T20:06:53.780Z,97737.98
2019-06-27T20:09:21.978Z,97737.20
2019-06-27T20:11:51.333Z,97740.51
2019-06-27T20:14:18.916Z,97737.77
2019-06-27T20:16:46.776Z,97748.30
2019-06-27T20:19:14.495Z,97751.00
2019-06-27T20:21:42.096Z,97749.99
2019-06-27T20:24:09.697Z,97744.20
2019-06-27T20:26:37.414Z,97751.38
2019-06-27T20:29:05.057Z,97754.78
2019-06-27T20:31:32.558Z,97747.83
2019-06-27T20:34:00.167Z,97748.86
2019-06-27T20:36:27.833Z,97756.78
2019-06-27T20:38:55.493Z,97763.30
2019-06-27T20:41:23.142Z,97755.08
2019-06-27T20:43:50.688Z,97766.87
2019-06-27T20:46:18.284Z,97768.46
2019-06-27T20:48:45.834Z,97775.02
2019-06-27T20:51:13.386Z,97773.28
2019-06-27T20:53:40.995Z,97777.84
2019-06-27T20:56:09.534Z,97781.96
2019-06-27T20:58:37.099Z,97785.27
2019-06-27T21:01:04.768Z,97778.28
2019-06-27T21:03:32.329Z,97772.69
2019-06-27T21:06:00.771Z,97779.76
2019-06-27T21:08:28.390Z,97776.05
2019-06-27T21:10:55.954Z,97780.91
2019-06-27T21:13:23.523Z,97794.20
2019-06-27T21:15:51.140Z,97775.50
2019-06-27T21:18:18.692Z,97792.55
2019-06-27T21:20:46.311Z,97794.06
2019-06-27T21:23:14.890Z,97783.25
2019-06-27T21:25:42.495Z,97806.14
2019-06-27T21:28:10.385Z,97804.09
2019-06-27T21:30:38.022Z,97802.67
2019-06-27T21:33:05.609Z,97810.59
2019-06-27T21:35:34.001Z,97805.32
2019-06-27T21:38:02.649Z,97809.93
2019-06-27T21:40:30.347Z,97804.20
2019-06-27T21:42:57.961Z,97807.78
2019-06-27T21:45:25.655Z,97807.86
2019-06-27T21:47:53.461Z,97809.00
2019-06-27T21:50:21.139Z,97808.55
2019-06-27T21:52:48.633Z,97803.27
2019-06-27T21:55:16.317Z,97795.47
2019-06-27T21:57:43.901Z,97808.27
2019-06-27T22:00:11.696Z,97806.98
2019-06-27T22:02:41.253Z,97808.44
2019-06-27T22:05:09.013Z,97810.65
2019-06-27T22:07:36.652Z,97816.07
2019-06-27T22:10:05.729Z,97819.38
2019-06-27T22:12:34.629Z,97825.40
2019-06-27T22:15:02.304Z,97826.09
2019-06-27T22:17:31.094Z,97825.16
2019-06-27T22:20:14.019Z,97829.78
2019-06-27T22:22:28.341Z,97834.59
2019-06-27T22:24:55.998Z,97836.67
2019-06-27T22:27:23.658Z,97833.94
2019-06-27T22:29:51.269Z,97833.38
2019-06-27T22:32:18.866Z,97835.73
2019-06-27T22:34:46.895Z,97827.34
2019-06-27T22:37:23.568Z,97825.08
2019-06-27T22:40:11.212Z,97820.77
2019-06-27T22:42:57.824Z,97820.77
2019-06-27T22:45:43.629Z,97825.88
2019-06-27T22:48:14.258Z,97825.25
2019-06-27T22:51:05.860Z,97817.61
2019-06-27T22:53:38.851Z,97819.06
2019-06-27T22:56:06.984Z,97825.34
2019-06-27T22:58:34.488Z,97831.78
2019-06-27T23:01:03.944Z,97811.13
2019-06-27T23:03:31.470Z,97817.89
2019-06-27T23:05:59.115Z,97822.73
2019-06-27T23:08:26.637Z,97816.23
2019-06-27T23:10:54.697Z,97824.80
2019-06-27T23:13:22.211Z,97826.14
2019-06-27T23:15:49.959Z,97825.76
2019-06-27T23:18:17.482Z,97831.68
2019-06-27T23:20:45.067Z,97828.23
2019-06-27T23:23:12.573Z,97829.34
2019-06-27T23:25:40.184Z,97822.04
2019-06-27T23:28:07.720Z,97828.87
2019-06-27T23:30:35.378Z,97821.78
2019-06-27T23:33:03.097Z,97821.69
2019-06-27T23:35:30.752Z,97821.00
2019-06-27T23:37:58.338Z,97817.52
2019-06-27T23:40:25.953Z,97823.09
2019-06-27T23:42:53.590Z,97818.25
2019-06-27T23:45:21.619Z,97820.44
2019-06-27T23:47:49.544Z,97811.75
2019-06-27T23:50:17.477Z,97814.06
2019-06-27T23:52:46.366Z,97814.97
2019-06-27T23:55:14.438Z,97811.73
2019-06-27T23:57:42.368Z,97821.06
